sensor_id;sensor_type;location;lat;lon;timestamp;temperature;humidity
77803;DHT22;66993;48.256;16.422;2023-05-31T00:00:16;15.9;54.0
77803;DHT22;66993;48.256;16.422;2023-05-31T00:05:16;15.8;54.0
77803;DHT22;66993;48.256;16.422;2023-05-31T00:10:16;15.7;54.0
77803;DHT22;66993;48.256;16.422;2023-05-31T00:15:16;15.5;54.0
77803;DHT22;66993;48.256;16.422;2023-05-31T00:20:18;15.5;54.0
77803;DHT22;66993;48.256;16.422;2023-05-31T00:25:16;15.5;55.0
77803;DHT22;66993;48.256;16.422;2023-05-31T00:30:16;15.4;54.0
77803;DHT22;66993;48.256;16.422;2023-05-31T00:35:16;15.3;54.0
77803;DHT22;66993;48.256;16.422;2023-05-31T00:40:16;15.3;54.0
77803;DHT22;66993;48.256;16.422;2023-05-31T00:45:16;15.3;55.0
77803;DHT22;66993;48.256;16.422;2023-05-31T00:50:16;15.6;55.0
77803;DHT22;66993;48.256;16.422;2023-05-31T00:55:16;15.3;55.0
77803;DHT22;66993;48.256;16.422;2023-05-31T01:00:16;15.2;55.0
77803;DHT22;66993;48.256;16.422;2023-05-31T01:05:16;15.0;56.0
77803;DHT22;66993;48.256;16.422;2023-05-31T01:10:16;14.8;56.0
77803;DHT22;66993;48.256;16.422;2023-05-31T01:15:17;14.8;56.0
77803;DHT22;66993;48.256;16.422;2023-05-31T01:20:17;14.7;56.0
77803;DHT22;66993;48.256;16.422;2023-05-31T01:25:22;14.8;56.0
77803;DHT22;66993;48.256;16.422;2023-05-31T01:30:16;14.8;56.0
77803;DHT22;66993;48.256;16.422;2023-05-31T01:35:16;14.6;57.0
77803;DHT22;66993;48.256;16.422;2023-05-31T01:40:16;14.5;57.0
77803;DHT22;66993;48.256;16.422;2023-05-31T01:45:16;14.5;57.0
77803;DHT22;66993;48.256;16.422;2023-05-31T01:50:16;14.3;57.0
77803;DHT22;66993;48.256;16.422;2023-05-31T01:55:16;14.4;57.0
77803;DHT22;66993;48.256;16.422;2023-05-31T02:00:16;14.1;57.0
77803;DHT22;66993;48.256;16.422;2023-05-31T02:05:16;14.1;57.0
77803;DHT22;66993;48.256;16.422;2023-05-31T02:10:16;14.1;57.0
77803;DHT22;66993;48.256;16.422;2023-05-31T02:15:16;14.0;58.0
77803;DHT22;66993;48.256;16.422;2023-05-31T02:20:16;14.0;58.0
77803;DHT22;66993;48.256;16.422;2023-05-31T02:25:16;14.0;58.0
77803;DHT22;66993;48.256;16.422;2023-05-31T02:30:16;14.0;58.0
77803;DHT22;66993;48.256;16.422;2023-05-31T02:35:16;13.9;58.0
77803;DHT22;66993;48.256;16.422;2023-05-31T02:40:16;13.7;58.0
77803;DHT22;66993;48.256;16.422;2023-05-31T02:45:16;13.5;59.0
77803;DHT22;66993;48.256;16.422;2023-05-31T02:50:16;13.5;59.0
77803;DHT22;66993;48.256;16.422;2023-05-31T02:55:16;13.6;59.0
77803;DHT22;66993;48.256;16.422;2023-05-31T03:00:16;13.5;59.0
77803;DHT22;66993;48.256;16.422;2023-05-31T03:05:16;13.6;59.0
77803;DHT22;66993;48.256;16.422;2023-05-31T03:10:16;13.5;59.0
77803;DHT22;66993;48.256;16.422;2023-05-31T03:15:16;13.4;59.0
77803;DHT22;66993;48.256;16.422;2023-05-31T03:20:16;13.4;59.0
77803;DHT22;66993;48.256;16.422;2023-05-31T03:25:16;13.3;59.0
77803;DHT22;66993;48.256;16.422;2023-05-31T03:30:16;13.2;59.0
77803;DHT22;66993;48.256;16.422;2023-05-31T03:35:16;13.3;59.0
77803;DHT22;66993;48.256;16.422;2023-05-31T03:40:16;13.2;59.0
77803;DHT22;66993;48.256;16.422;2023-05-31T03:45:16;13.2;59.0
77803;DHT22;66993;48.256;16.422;2023-05-31T03:50:16;13.2;59.0
77803;DHT22;66993;48.256;16.422;2023-05-31T03:55:16;13.2;59.0
77803;DHT22;66993;48.256;16.422;2023-05-31T04:00:16;13.2;60.0
77803;DHT22;66993;48.256;16.422;2023-05-31T04:05:16;13.3;60.0
77803;DHT22;66993;48.256;16.422;2023-05-31T04:10:16;13.4;60.0
77803;DHT22;66993;48.256;16.422;2023-05-31T04:15:16;13.4;60.0
77803;DHT22;66993;48.256;16.422;2023-05-31T04:20:16;13.4;60.0
77803;DHT22;66993;48.256;16.422;2023-05-31T04:25:16;13.4;60.0
77803;DHT22;66993;48.256;16.422;2023-05-31T04:30:16;14.0;60.0
77803;DHT22;66993;48.256;16.422;2023-05-31T04:35:16;14.0;60.0
77803;DHT22;66993;48.256;16.422;2023-05-31T04:40:16;14.3;60.0
77803;DHT22;66993;48.256;16.422;2023-05-31T04:45:16;14.3;60.0
77803;DHT22;66993;48.256;16.422;2023-05-31T04:50:16;14.2;60.0
77803;DHT22;66993;48.256;16.422;2023-05-31T04:55:16;14.3;59.0
77803;DHT22;66993;48.256;16.422;2023-05-31T05:00:16;14.2;59.0
77803;DHT22;66993;48.256;16.422;2023-05-31T05:05:16;14.3;59.0
77803;DHT22;66993;48.256;16.422;2023-05-31T05:10:16;14.6;59.0
77803;DHT22;66993;48.256;16.422;2023-05-31T05:15:16;14.6;59.0
77803;DHT22;66993;48.256;16.422;2023-05-31T05:20:16;14.6;58.0
77803;DHT22;66993;48.256;16.422;2023-05-31T05:25:16;14.7;58.0
77803;DHT22;66993;48.256;16.422;2023-05-31T05:30:16;14.8;58.0
77803;DHT22;66993;48.256;16.422;2023-05-31T05:35:16;15.0;58.0
77803;DHT22;66993;48.256;16.422;2023-05-31T05:40:16;15.3;58.0
77803;DHT22;66993;48.256;16.422;2023-05-31T05:45:16;15.5;58.0
77803;DHT22;66993;48.256;16.422;2023-05-31T05:50:16;15.8;58.0
77803;DHT22;66993;48.256;16.422;2023-05-31T05:55:16;15.6;57.0
77803;DHT22;66993;48.256;16.422;2023-05-31T06:00:16;16.0;57.0
77803;DHT22;66993;48.256;16.422;2023-05-31T06:05:16;16.0;57.0
77803;DHT22;66993;48.256;16.422;2023-05-31T06:10:16;16.3;56.0
77803;DHT22;66993;48.256;16.422;2023-05-31T06:15:16;16.5;56.0
77803;DHT22;66993;48.256;16.422;2023-05-31T06:20:16;16.6;55.0
77803;DHT22;66993;48.256;16.422;2023-05-31T06:25:16;17.1;55.0
77803;DHT22;66993;48.256;16.422;2023-05-31T06:30:16;17.1;54.0
77803;DHT22;66993;48.256;16.422;2023-05-31T06:35:16;17.3;54.0
77803;DHT22;66993;48.256;16.422;2023-05-31T06:40:16;17.1;52.0
77803;DHT22;66993;48.256;16.422;2023-05-31T06:45:16;16.6;51.0
77803;DHT22;66993;48.256;16.422;2023-05-31T06:50:16;17.1;52.0
77803;DHT22;66993;48.256;16.422;2023-05-31T06:55:16;17.4;52.0
77803;DHT22;66993;48.256;16.422;2023-05-31T07:00:16;17.9;52.0
77803;DHT22;66993;48.256;16.422;2023-05-31T07:05:16;17.6;51.0
77803;DHT22;66993;48.256;16.422;2023-05-31T07:10:16;17.7;51.0
77803;DHT22;66993;48.256;16.422;2023-05-31T07:15:16;17.5;50.0
77803;DHT22;66993;48.256;16.422;2023-05-31T07:20:16;17.6;50.0
77803;DHT22;66993;48.256;16.422;2023-05-31T07:25:16;17.8;50.0
77803;DHT22;66993;48.256;16.422;2023-05-31T07:30:16;18.3;50.0
77803;DHT22;66993;48.256;16.422;2023-05-31T07:35:16;18.5;49.0
77803;DHT22;66993;48.256;16.422;2023-05-31T07:40:16;19.1;49.0
77803;DHT22;66993;48.256;16.422;2023-05-31T07:45:16;18.6;48.0
77803;DHT22;66993;48.256;16.422;2023-05-31T07:50:16;19.1;46.0
77803;DHT22;66993;48.256;16.422;2023-05-31T07:55:16;18.8;45.0
77803;DHT22;66993;48.256;16.422;2023-05-31T08:00:16;19.2;46.0
77803;DHT22;66993;48.256;16.422;2023-05-31T08:05:16;20.2;45.0
77803;DHT22;66993;48.256;16.422;2023-05-31T08:10:16;20.2;44.0
77803;DHT22;66993;48.256;16.422;2023-05-31T08:15:16;19.7;44.0
77803;DHT22;66993;48.256;16.422;2023-05-31T08:20:16;19.7;43.0
77803;DHT22;66993;48.256;16.422;2023-05-31T08:25:16;20.2;42.0
77803;DHT22;66993;48.256;16.422;2023-05-31T08:30:16;20.2;42.0
77803;DHT22;66993;48.256;16.422;2023-05-31T08:35:16;20.7;42.0
77803;DHT22;66993;48.256;16.422;2023-05-31T08:40:16;20.2;41.0
77803;DHT22;66993;48.256;16.422;2023-05-31T08:45:16;21.7;41.0
77803;DHT22;66993;48.256;16.422;2023-05-31T08:50:16;21.7;40.0
77803;DHT22;66993;48.256;16.422;2023-05-31T08:55:16;22.2;40.0
77803;DHT22;66993;48.256;16.422;2023-05-31T09:00:16;21.7;39.0
77803;DHT22;66993;48.256;16.422;2023-05-31T09:05:16;21.2;38.0
77803;DHT22;66993;48.256;16.422;2023-05-31T09:10:16;23.7;39.0
77803;DHT22;66993;48.256;16.422;2023-05-31T09:15:16;22.2;37.0
77803;DHT22;66993;48.256;16.422;2023-05-31T09:20:17;23.2;36.0
77803;DHT22;66993;48.256;16.422;2023-05-31T09:25:16;22.7;38.0
77803;DHT22;66993;48.256;16.422;2023-05-31T09:30:16;22.7;35.0
77803;DHT22;66993;48.256;16.422;2023-05-31T09:35:16;23.7;35.0
77803;DHT22;66993;48.256;16.422;2023-05-31T09:40:22;23.7;36.0
77803;DHT22;66993;48.256;16.422;2023-05-31T09:45:16;24.2;35.0
77803;DHT22;66993;48.256;16.422;2023-05-31T09:50:16;24.2;36.0
77803;DHT22;66993;48.256;16.422;2023-05-31T09:55:16;24.2;35.0
77803;DHT22;66993;48.256;16.422;2023-05-31T10:00:16;23.7;35.0
77803;DHT22;66993;48.256;16.422;2023-05-31T10:05:16;25.7;35.0
77803;DHT22;66993;48.256;16.422;2023-05-31T10:10:16;25.7;35.0
77803;DHT22;66993;48.256;16.422;2023-05-31T10:15:17;24.7;34.0
77803;DHT22;66993;48.256;16.422;2023-05-31T10:20:16;23.7;33.0
77803;DHT22;66993;48.256;16.422;2023-05-31T10:25:17;25.7;34.0
77803;DHT22;66993;48.256;16.422;2023-05-31T10:30:16;24.2;34.0
77803;DHT22;66993;48.256;16.422;2023-05-31T10:35:16;24.2;32.0
77803;DHT22;66993;48.256;16.422;2023-05-31T10:40:17;25.7;32.0
77803;DHT22;66993;48.256;16.422;2023-05-31T10:45:18;24.2;31.0
77803;DHT22;66993;48.256;16.422;2023-05-31T10:50:17;25.2;31.0
77803;DHT22;66993;48.256;16.422;2023-05-31T10:55:17;24.7;32.0
77803;DHT22;66993;48.256;16.422;2023-05-31T11:00:18;26.2;31.0
77803;DHT22;66993;48.256;16.422;2023-05-31T11:05:17;24.7;31.0
77803;DHT22;66993;48.256;16.422;2023-05-31T11:10:24;25.2;31.0
77803;DHT22;66993;48.256;16.422;2023-05-31T11:15:16;26.2;30.0
77803;DHT22;66993;48.256;16.422;2023-05-31T11:20:16;27.7;33.0
77803;DHT22;66993;48.256;16.422;2023-05-31T11:25:17;25.7;34.0
77803;DHT22;66993;48.256;16.422;2023-05-31T11:30:16;26.2;35.0
77803;DHT22;66993;48.256;16.422;2023-05-31T11:35:16;26.2;35.0
77803;DHT22;66993;48.256;16.422;2023-05-31T11:40:16;26.7;34.0
77803;DHT22;66993;48.256;16.422;2023-05-31T11:45:16;25.7;36.0
77803;DHT22;66993;48.256;16.422;2023-05-31T11:50:16;26.7;36.0
77803;DHT22;66993;48.256;16.422;2023-05-31T11:55:16;27.2;37.0
77803;DHT22;66993;48.256;16.422;2023-05-31T12:00:16;26.2;34.0
77803;DHT22;66993;48.256;16.422;2023-05-31T12:05:16;27.7;37.0
77803;DHT22;66993;48.256;16.422;2023-05-31T12:10:16;26.7;37.0
77803;DHT22;66993;48.256;16.422;2023-05-31T12:15:16;27.2;35.0
77803;DHT22;66993;48.256;16.422;2023-05-31T12:20:16;27.2;35.0
77803;DHT22;66993;48.256;16.422;2023-05-31T12:25:16;28.7;35.0
77803;DHT22;66993;48.256;16.422;2023-05-31T12:30:16;28.2;35.0
77803;DHT22;66993;48.256;16.422;2023-05-31T12:35:16;28.2;35.0
77803;DHT22;66993;48.256;16.422;2023-05-31T12:40:16;27.2;35.0
77803;DHT22;66993;48.256;16.422;2023-05-31T12:45:17;28.7;34.0
77803;DHT22;66993;48.256;16.422;2023-05-31T12:50:16;28.2;36.0
77803;DHT22;66993;48.256;16.422;2023-05-31T12:55:16;28.7;35.0
77803;DHT22;66993;48.256;16.422;2023-05-31T13:00:16;27.7;36.0
77803;DHT22;66993;48.256;16.422;2023-05-31T13:05:16;27.7;36.0
77803;DHT22;66993;48.256;16.422;2023-05-31T13:10:16;29.2;36.0
77803;DHT22;66993;48.256;16.422;2023-05-31T13:15:16;26.7;36.0
77803;DHT22;66993;48.256;16.422;2023-05-31T13:20:16;28.7;36.0
77803;DHT22;66993;48.256;16.422;2023-05-31T13:25:16;29.7;35.0
77803;DHT22;66993;48.256;16.422;2023-05-31T13:30:16;27.7;36.0
77803;DHT22;66993;48.256;16.422;2023-05-31T13:35:16;27.7;36.0
77803;DHT22;66993;48.256;16.422;2023-05-31T13:40:16;29.2;36.0
77803;DHT22;66993;48.256;16.422;2023-05-31T13:45:16;28.2;35.0
77803;DHT22;66993;48.256;16.422;2023-05-31T13:50:16;28.7;36.0
77803;DHT22;66993;48.256;16.422;2023-05-31T13:55:16;26.6;35.0
77803;DHT22;66993;48.256;16.422;2023-05-31T14:00:16;27.6;35.0
77803;DHT22;66993;48.256;16.422;2023-05-31T14:05:16;28.1;36.0
77803;DHT22;66993;48.256;16.422;2023-05-31T14:10:16;27.2;36.0
77803;DHT22;66993;48.256;16.422;2023-05-31T14:15:16;28.2;36.0
77803;DHT22;66993;48.256;16.422;2023-05-31T14:20:16;27.7;36.0
77803;DHT22;66993;48.256;16.422;2023-05-31T14:25:16;28.7;36.0
77803;DHT22;66993;48.256;16.422;2023-05-31T14:30:16;28.7;34.0
77803;DHT22;66993;48.256;16.422;2023-05-31T14:35:16;28.7;35.0
77803;DHT22;66993;48.256;16.422;2023-05-31T14:40:16;27.7;35.0
77803;DHT22;66993;48.256;16.422;2023-05-31T14:45:16;27.7;35.0
77803;DHT22;66993;48.256;16.422;2023-05-31T14:50:16;28.7;36.0
77803;DHT22;66993;48.256;16.422;2023-05-31T14:55:16;27.7;35.0
77803;DHT22;66993;48.256;16.422;2023-05-31T15:00:16;28.7;33.0
77803;DHT22;66993;48.256;16.422;2023-05-31T15:05:16;27.2;35.0
77803;DHT22;66993;48.256;16.422;2023-05-31T15:10:16;28.2;34.0
77803;DHT22;66993;48.256;16.422;2023-05-31T15:15:16;28.7;35.0
77803;DHT22;66993;48.256;16.422;2023-05-31T15:20:17;28.2;34.0
77803;DHT22;66993;48.256;16.422;2023-05-31T15:25:16;26.7;34.0
77803;DHT22;66993;48.256;16.422;2023-05-31T15:30:16;26.7;34.0
77803;DHT22;66993;48.256;16.422;2023-05-31T15:35:16;28.2;33.0
77803;DHT22;66993;48.256;16.422;2023-05-31T15:40:16;27.2;34.0
77803;DHT22;66993;48.256;16.422;2023-05-31T15:45:16;26.7;33.0
77803;DHT22;66993;48.256;16.422;2023-05-31T15:50:16;26.7;33.0
77803;DHT22;66993;48.256;16.422;2023-05-31T15:55:16;28.2;33.0
77803;DHT22;66993;48.256;16.422;2023-05-31T16:00:16;27.2;33.0
77803;DHT22;66993;48.256;16.422;2023-05-31T16:05:16;26.7;33.0
77803;DHT22;66993;48.256;16.422;2023-05-31T16:10:16;26.7;33.0
77803;DHT22;66993;48.256;16.422;2023-05-31T16:15:16;27.2;33.0
77803;DHT22;66993;48.256;16.422;2023-05-31T16:20:16;27.4;32.0
77803;DHT22;66993;48.256;16.422;2023-05-31T16:25:16;26.9;32.0
77803;DHT22;66993;48.256;16.422;2023-05-31T16:30:16;25.9;32.0
77803;DHT22;66993;48.256;16.422;2023-05-31T16:35:16;26.0;33.0
77803;DHT22;66993;48.256;16.422;2023-05-31T16:40:16;25.8;33.0
77803;DHT22;66993;48.256;16.422;2023-05-31T16:45:16;25.7;33.0
77803;DHT22;66993;48.256;16.422;2023-05-31T16:50:16;25.7;34.0
77803;DHT22;66993;48.256;16.422;2023-05-31T16:55:16;25.2;34.0
77803;DHT22;66993;48.256;16.422;2023-05-31T17:00:16;26.0;34.0
77803;DHT22;66993;48.256;16.422;2023-05-31T17:05:16;25.5;34.0
77803;DHT22;66993;48.256;16.422;2023-05-31T17:10:16;25.5;35.0
77803;DHT22;66993;48.256;16.422;2023-05-31T17:15:16;25.3;35.0
77803;DHT22;66993;48.256;16.422;2023-05-31T17:20:16;24.7;34.0
77803;DHT22;66993;48.256;16.422;2023-05-31T17:25:16;24.8;35.0
77803;DHT22;66993;48.256;16.422;2023-05-31T17:30:16;24.3;34.0
77803;DHT22;66993;48.256;16.422;2023-05-31T17:35:16;24.3;34.0
77803;DHT22;66993;48.256;16.422;2023-05-31T17:40:16;24.5;34.0
77803;DHT22;66993;48.256;16.422;2023-05-31T17:45:16;24.3;34.0
77803;DHT22;66993;48.256;16.422;2023-05-31T17:50:16;24.3;35.0
77803;DHT22;66993;48.256;16.422;2023-05-31T17:55:16;24.1;35.0
77803;DHT22;66993;48.256;16.422;2023-05-31T18:00:16;24.0;35.0
77803;DHT22;66993;48.256;16.422;2023-05-31T18:05:16;23.5;35.0
77803;DHT22;66993;48.256;16.422;2023-05-31T18:10:16;23.4;35.0
77803;DHT22;66993;48.256;16.422;2023-05-31T18:15:16;23.5;37.0
77803;DHT22;66993;48.256;16.422;2023-05-31T18:20:16;22.8;37.0
77803;DHT22;66993;48.256;16.422;2023-05-31T18:25:16;22.5;37.0
77803;DHT22;66993;48.256;16.422;2023-05-31T18:30:16;22.2;38.0
77803;DHT22;66993;48.256;16.422;2023-05-31T18:35:16;21.9;39.0
77803;DHT22;66993;48.256;16.422;2023-05-31T18:40:16;21.7;39.0
77803;DHT22;66993;48.256;16.422;2023-05-31T18:45:16;21.5;40.0
77803;DHT22;66993;48.256;16.422;2023-05-31T18:50:16;21.0;43.0
77803;DHT22;66993;48.256;16.422;2023-05-31T18:55:16;20.7;45.0
77803;DHT22;66993;48.256;16.422;2023-05-31T19:00:16;20.4;47.0
77803;DHT22;66993;48.256;16.422;2023-05-31T19:05:16;19.9;49.0
77803;DHT22;66993;48.256;16.422;2023-05-31T19:10:16;19.4;50.0
77803;DHT22;66993;48.256;16.422;2023-05-31T19:15:16;19.5;51.0
77803;DHT22;66993;48.256;16.422;2023-05-31T19:20:16;19.4;54.0
77803;DHT22;66993;48.256;16.422;2023-05-31T19:25:16;19.3;55.0
77803;DHT22;66993;48.256;16.422;2023-05-31T19:30:16;19.5;56.0
77803;DHT22;66993;48.256;16.422;2023-05-31T19:35:16;19.3;57.0
77803;DHT22;66993;48.256;16.422;2023-05-31T19:40:16;19.4;58.0
77803;DHT22;66993;48.256;16.422;2023-05-31T19:45:16;19.2;58.0
77803;DHT22;66993;48.256;16.422;2023-05-31T19:50:16;18.7;59.0
77803;DHT22;66993;48.256;16.422;2023-05-31T19:55:16;18.2;59.0
77803;DHT22;66993;48.256;16.422;2023-05-31T20:00:16;17.7;60.0
77803;DHT22;66993;48.256;16.422;2023-05-31T20:05:16;17.7;63.0
77803;DHT22;66993;48.256;16.422;2023-05-31T20:10:16;16.8;63.0
77803;DHT22;66993;48.256;16.422;2023-05-31T20:15:16;16.7;64.0
77803;DHT22;66993;48.256;16.422;2023-05-31T20:20:16;16.5;64.0
77803;DHT22;66993;48.256;16.422;2023-05-31T20:25:16;16.7;65.0
77803;DHT22;66993;48.256;16.422;2023-05-31T20:30:16;16.4;65.0
77803;DHT22;66993;48.256;16.422;2023-05-31T20:35:16;16.9;66.0
77803;DHT22;66993;48.256;16.422;2023-05-31T20:40:16;17.2;67.0
77803;DHT22;66993;48.256;16.422;2023-05-31T20:45:16;16.8;67.0
77803;DHT22;66993;48.256;16.422;2023-05-31T20:50:16;16.3;68.0
77803;DHT22;66993;48.256;16.422;2023-05-31T20:55:16;16.1;68.0
77803;DHT22;66993;48.256;16.422;2023-05-31T21:00:16;16.2;69.0
77803;DHT22;66993;48.256;16.422;2023-05-31T21:05:16;15.9;70.0
77803;DHT22;66993;48.256;16.422;2023-05-31T21:10:16;15.7;70.0
77803;DHT22;66993;48.256;16.422;2023-05-31T21:15:16;15.4;70.0
77803;DHT22;66993;48.256;16.422;2023-05-31T21:20:16;15.2;71.0
77803;DHT22;66993;48.256;16.422;2023-05-31T21:25:16;14.9;71.0
77803;DHT22;66993;48.256;16.422;2023-05-31T21:30:16;14.9;71.0
77803;DHT22;66993;48.256;16.422;2023-05-31T21:35:16;14.9;72.0
77803;DHT22;66993;48.256;16.422;2023-05-31T21:40:16;15.2;73.0
77803;DHT22;66993;48.256;16.422;2023-05-31T21:45:16;15.0;73.0
77803;DHT22;66993;48.256;16.422;2023-05-31T21:50:16;15.1;74.0
77803;DHT22;66993;48.256;16.422;2023-05-31T21:55:16;14.8;74.0
77803;DHT22;66993;48.256;16.422;2023-05-31T22:00:16;15.2;74.0
77803;DHT22;66993;48.256;16.422;2023-05-31T22:05:16;14.8;74.0
77803;DHT22;66993;48.256;16.422;2023-05-31T22:10:16;14.3;74.0
77803;DHT22;66993;48.256;16.422;2023-05-31T22:15:16;14.5;75.0
77803;DHT22;66993;48.256;16.422;2023-05-31T22:20:16;14.0;75.0
77803;DHT22;66993;48.256;16.422;2023-05-31T22:25:16;13.8;75.0
77803;DHT22;66993;48.256;16.422;2023-05-31T22:30:16;13.7;75.0
77803;DHT22;66993;48.256;16.422;2023-05-31T22:35:16;13.8;75.0
77803;DHT22;66993;48.256;16.422;2023-05-31T22:40:16;13.6;75.0
77803;DHT22;66993;48.256;16.422;2023-05-31T22:45:16;13.6;75.0
77803;DHT22;66993;48.256;16.422;2023-05-31T22:50:16;14.0;75.0
77803;DHT22;66993;48.256;16.422;2023-05-31T22:55:16;14.5;76.0
77803;DHT22;66993;48.256;16.422;2023-05-31T23:00:16;14.4;76.0
77803;DHT22;66993;48.256;16.422;2023-05-31T23:05:16;14.7;76.0
77803;DHT22;66993;48.256;16.422;2023-05-31T23:10:16;14.8;76.0
77803;DHT22;66993;48.256;16.422;2023-05-31T23:15:16;14.7;75.0
77803;DHT22;66993;48.256;16.422;2023-05-31T23:20:16;14.7;75.0
77803;DHT22;66993;48.256;16.422;2023-05-31T23:25:16;14.5;75.0
77803;DHT22;66993;48.256;16.422;2023-05-31T23:30:16;14.4;75.0
77803;DHT22;66993;48.256;16.422;2023-05-31T23:35:16;14.5;75.0
77803;DHT22;66993;48.256;16.422;2023-05-31T23:40:16;14.4;75.0
77803;DHT22;66993;48.256;16.422;2023-05-31T23:45:16;14.5;75.0
77803;DHT22;66993;48.256;16.422;2023-05-31T23:50:16;14.3;75.0
77803;DHT22;66993;48.256;16.422;2023-05-31T23:55:16;14.3;75.0
